Time;durP1;ratioP1;P1;durP2;ratioP2;P2;SDS_P1;SDS_P2;PMS_P1;PMS_P2;Temp;Humidity;BMP_temperature;BMP_pressure;BME280_temperature;BME280_humidity;BME280_pressure;Samples;Min_cycle;Max_cycle;Signal;HPM_P1;HPM_P2
2022/10/04 00:01:14;;;;;;;14.07;6.03;;;13.10;99.90;;;;;;6306792;22;20463;-85
2022/10/04 00:04:01;;;;;;;17.87;6.00;;;13.10;99.90;;;;;;6307020;22;20437;-85
2022/10/04 00:06:29;;;;;;;17.70;6.70;;;13.10;99.90;;;;;;6279429;22;20405;-85
2022/10/04 00:09:00;;;;;;;14.00;6.27;;;13.00;99.90;;;;;;6306432;22;20699;-85
2022/10/04 00:11:31;;;;;;;10.50;5.50;;;13.00;99.90;;;;;;6279404;22;20413;-84
2022/10/04 00:14:16;;;;;;;8.07;5.10;;;13.00;99.90;;;;;;6279323;22;20412;-85
2022/10/04 00:20:39;;;;;;;;;;;;;;;;;;;;;
2022/10/04 00:23:22;;;;;;;8.27;5.73;;;13.00;1.00;;;;;;6294248;22;20433;-85
2022/10/04 00:25:52;;;;;;;9.63;5.83;;;13.00;1.00;;;;;;6279869;22;20761;-85
2022/10/04 00:28:26;;;;;;;9.93;5.40;;;13.00;1.00;;;;;;6306372;22;20420;-84
2022/10/04 00:31:23;;;;;;;11.37;6.40;;;13.00;1.00;;;;;;6306598;22;20403;-85
2022/10/04 00:34:16;;;;;;;14.23;5.40;;;13.00;1.00;;;;;;6307263;22;20367;-85
2022/10/04 00:36:55;;;;;;;8.83;5.73;;;13.00;1.00;;;;;;6278436;22;20381;-85
2022/10/04 00:39:38;;;;;;;9.20;5.70;;;13.00;99.90;;;;;;6306370;22;20355;-84
2022/10/04 00:42:27;;;;;;;7.37;5.10;;;13.00;99.90;;;;;;6278164;22;20431;-85
2022/10/04 00:44:59;;;;;;;6.23;5.63;;;13.00;1.00;;;;;;6306668;22;20362;-85
2022/10/04 00:47:42;;;;;;;9.40;6.67;;;13.00;1.00;;;;;;6306127;22;20366;-85
2022/10/04 00:50:11;;;;;;;7.27;5.73;;;13.00;1.00;;;;;;6306331;22;20442;-85
2022/10/04 00:52:50;;;;;;;7.43;5.57;;;13.00;1.00;;;;;;6306690;22;20405;-85
2022/10/04 00:55:33;;;;;;;14.50;6.60;;;13.00;2.60;;;;;;6306352;22;20420;-85
2022/10/04 00:58:01;;;;;;;10.00;5.80;;;13.00;99.90;;;;;;6305344;22;20365;-85
2022/10/04 01:00:33;;;;;;;7.33;6.17;;;13.00;99.90;;;;;;6278939;22;20547;-85
2022/10/04 01:03:23;;;;;;;14.97;7.27;;;13.00;99.90;;;;;;6277151;22;20433;-86
2022/10/04 01:05:56;;;;;;;8.63;6.00;;;13.00;99.90;;;;;;6278064;22;20488;-85
2022/10/04 01:08:49;;;;;;;9.07;6.43;;;13.00;99.90;;;;;;6303588;22;20359;-85
2022/10/04 01:11:54;;;;;;;10.90;5.80;;;12.90;99.90;;;;;;6303418;22;20962;-85
2022/10/04 01:14:30;;;;;;;11.13;6.63;;;12.90;99.90;;;;;;6303240;22;20386;-85
2022/10/04 01:16:58;;;;;;;8.37;5.70;;;12.80;99.90;;;;;;6278322;22;20382;-85
2022/10/04 01:22:35;;;;;;;8.33;5.50;;;12.80;1.00;;;;;;6306343;22;20390;-85
2022/10/04 01:25:03;;;;;;;11.13;5.90;;;12.80;1.00;;;;;;6290320;22;20359;-85
2022/10/04 01:27:40;;;;;;;8.30;5.70;;;12.80;1.00;;;;;;6279192;22;20381;-85
2022/10/04 01:30:27;;;;;;;10.20;5.23;;;12.70;1.00;;;;;;6305146;22;20878;-85
2022/10/04 01:32:52;;;;;;;7.47;5.93;;;12.80;1.00;;;;;;6305882;22;20382;-85
2022/10/04 01:35:24;;;;;;;6.10;5.37;;;12.70;1.00;;;;;;6305171;22;20873;-85
2022/10/04 01:37:49;;;;;;;6.23;5.63;;;12.70;1.00;;;;;;6306084;22;20143;-85
2022/10/04 01:40:22;;;;;;;7.37;5.70;;;12.70;1.00;;;;;;6306046;22;20751;-85
2022/10/04 01:42:57;;;;;;;11.80;6.13;;;12.60;1.00;;;;;;6306104;22;20640;-85
2022/10/04 01:45:37;;;;;;;6.80;6.13;;;12.60;1.00;;;;;;6306321;22;20396;-85
2022/10/04 01:48:10;;;;;;;10.77;6.17;;;12.50;1.00;;;;;;6279254;22;20378;-85
2022/10/04 01:51:26;;;;;;;7.40;6.10;;;12.50;1.00;;;;;;6305916;22;20392;-85
2022/10/04 01:54:12;;;;;;;11.43;6.33;;;12.40;1.00;;;;;;6272063;22;20382;-85
2022/10/04 01:56:51;;;;;;;10.43;5.80;;;12.40;1.00;;;;;;6305925;22;20384;-85
2022/10/04 01:59:34;;;;;;;17.83;6.30;;;12.30;39.30;;;;;;6278024;22;20519;-85
2022/10/04 02:02:20;;;;;;;10.30;6.33;;;12.30;99.90;;;;;;6305708;22;20393;-85
2022/10/04 02:04:54;;;;;;;9.13;5.80;;;12.30;99.90;;;;;;6278244;22;20372;-85
2022/10/04 02:07:35;;;;;;;13.30;6.10;;;12.20;99.90;;;;;;6278528;22;20852;-85
2022/10/04 02:10:09;;;;;;;9.40;5.40;;;12.20;99.90;;;;;;6305490;22;20430;-85
2022/10/04 02:12:45;;;;;;;10.40;6.27;;;12.20;99.90;;;;;;6305333;22;20386;-85
2022/10/04 02:15:21;;;;;;;10.00;6.27;;;12.10;99.90;;;;;;6305664;22;20361;-85
2022/10/04 02:17:47;;;;;;;16.07;6.03;;;12.10;99.90;;;;;;6305376;22;20376;-85
2022/10/04 02:20:20;;;;;;;11.00;6.20;;;12.10;99.90;;;;;;6305614;22;20508;-85
2022/10/04 02:22:53;;;;;;;9.63;6.47;;;12.10;99.90;;;;;;6305938;22;20420;-85
2022/10/04 02:25:28;;;;;;;10.30;6.27;;;12.10;99.90;;;;;;6305084;22;20377;-85
2022/10/04 02:27:55;;;;;;;12.00;6.70;;;12.10;99.90;;;;;;6277832;22;20472;-85
2022/10/04 02:30:36;;;;;;;11.50;6.80;;;12.10;99.90;;;;;;6305646;22;20716;-84
2022/10/04 02:33:01;;;;;;;9.17;7.13;;;12.10;99.90;;;;;;6305709;22;20501;-85
2022/10/04 02:35:45;;;;;;;8.00;6.90;;;12.00;1.00;;;;;;6305754;22;20410;-85
2022/10/04 02:38:30;;;;;;;10.60;6.93;;;12.00;1.00;;;;;;6277477;22;20474;-85
2022/10/04 02:41:23;;;;;;;13.43;6.30;;;12.00;1.00;;;;;;6277884;22;20420;-85
2022/10/04 02:43:56;;;;;;;10.53;6.03;;;12.00;1.00;;;;;;6308219;22;20393;-85
2022/10/04 02:46:39;;;;;;;11.80;6.67;;;12.10;1.00;;;;;;6306936;22;20342;-85
2022/10/04 02:49:20;;;;;;;12.03;6.50;;;12.10;1.00;;;;;;6306791;22;20404;-85
2022/10/04 02:52:07;;;;;;;;;;;;;;;;;;;;;
2022/10/04 02:54:36;;;;;;;11.07;6.07;;;12.00;99.90;;;;;;6306697;22;20422;-86
2022/10/04 02:57:14;;;;;;;8.87;5.83;;;12.00;99.90;;;;;;6306462;22;20386;-84
2022/10/04 02:59:50;;;;;;;12.90;6.67;;;12.00;99.90;;;;;;6307669;22;20354;-85
2022/10/04 03:02:27;;;;;;;7.83;6.20;;;11.90;99.90;;;;;;6307255;22;20454;-85
2022/10/04 03:05:03;;;;;;;9.87;6.23;;;11.90;1.00;;;;;;6308281;22;20735;-85
2022/10/04 03:07:34;;;;;;;8.70;6.37;;;11.80;1.00;;;;;;6279529;22;20890;-85
2022/10/04 03:10:01;;;;;;;11.33;6.37;;;11.70;1.00;;;;;;6280507;22;20376;-85
2022/10/04 03:12:27;;;;;;;10.10;5.50;;;11.70;1.00;;;;;;6306216;22;20459;-85
2022/10/04 03:14:58;;;;;;;7.20;5.90;;;11.70;1.00;;;;;;6325645;22;20752;-85
2022/10/04 03:17:26;;;;;;;13.13;6.00;;;11.70;1.00;;;;;;6329703;22;21009;-85
2022/10/04 03:19:51;;;;;;;6.93;5.23;;;11.80;1.00;;;;;;6315164;22;21098;-85
2022/10/04 03:22:37;;;;;;;8.93;5.87;;;11.70;1.00;;;;;;6307271;22;20398;-85
2022/10/04 03:25:20;;;;;;;11.83;5.83;;;11.80;1.00;;;;;;6279108;22;20193;-85
2022/10/04 03:28:09;;;;;;;;;;;;;;;;;;;;;
2022/10/04 03:31:02;;;;;;;10.00;6.43;;;11.80;1.00;;;;;;6307414;22;20470;-85
2022/10/04 03:37:08;;;;;;;;;;;;;;;;;;;;;
2022/10/04 03:39:40;;;;;;;7.77;5.73;;;11.80;1.00;;;;;;6306666;22;20786;-85
2022/10/04 03:42:30;;;;;;;;;;;;;;;;;;;;;
2022/10/04 03:45:04;;;;;;;11.60;5.73;;;11.60;1.00;;;;;;6307734;22;20421;-85
2022/10/04 03:47:34;;;;;;;23.30;6.30;;;11.70;1.00;;;;;;6306409;22;20350;-84
2022/10/04 03:50:37;;;;;;;11.20;5.80;;;11.60;1.00;;;;;;6307422;22;20879;-85
2022/10/04 03:53:35;;;;;;;8.37;5.87;;;11.60;1.00;;;;;;6306762;22;20981;-85
2022/10/04 03:56:10;;;;;;;10.87;5.70;;;11.50;1.00;;;;;;6277714;22;20905;-85
2022/10/04 03:58:41;;;;;;;9.37;6.70;;;11.50;1.00;;;;;;6278938;22;20392;-85
2022/10/04 04:01:29;;;;;;;9.23;6.60;;;11.40;1.00;;;;;;6279628;22;20496;-85
2022/10/04 04:04:05;;;;;;;20.07;6.40;;;11.30;1.00;;;;;;6306528;22;20426;-85
2022/10/04 04:06:42;;;;;;;10.97;6.43;;;11.20;50.70;;;;;;6307376;22;20377;-85
2022/10/04 04:09:13;;;;;;;14.30;7.07;;;11.10;98.40;;;;;;6305774;22;20338;-85
2022/10/04 04:11:57;;;;;;;10.30;7.00;;;11.10;99.90;;;;;;6307368;22;20386;-85
2022/10/04 04:14:25;;;;;;;10.17;7.00;;;11.00;99.90;;;;;;6279601;22;20431;-85
2022/10/04 04:17:31;;;;;;;10.27;7.30;;;11.00;99.90;;;;;;6307208;22;20473;-85
2022/10/04 04:20:07;;;;;;;14.40;6.63;;;10.90;99.90;;;;;;6278756;22;20852;-84
2022/10/04 04:26:14;;;;;;;;;;;;;;;;;;;;;
2022/10/04 04:29:35;;;;;;;9.40;7.57;;;10.80;99.90;;;;;;6296449;22;21122;-85
2022/10/04 04:35:16;;;;;;;;;;;;;;;;;;;;;
2022/10/04 04:38:19;;;;;;;7.57;5.90;;;10.70;99.90;;;;;;6306191;22;20454;-85
2022/10/04 04:41:13;;;;;;;8.00;6.80;;;10.70;99.90;;;;;;6277794;22;20428;-84
2022/10/04 04:43:55;;;;;;;;;;;;;;;;;;;;;
2022/10/04 04:46:29;;;;;;;14.50;6.53;;;10.80;99.90;;;;;;6306127;22;20442;-85
2022/10/04 04:52:32;;;;;;;11.17;6.90;;;10.90;99.90;;;;;;6279171;22;20405;-85
2022/10/04 04:58:28;;;;;;;8.03;6.00;;;10.90;99.90;;;;;;6288323;22;20771;-84
2022/10/04 05:01:20;;;;;;;12.07;6.70;;;10.90;99.90;;;;;;6305905;22;20948;-85
2022/10/04 05:04:03;;;;;;;13.73;6.60;;;11.00;99.90;;;;;;6304534;22;20412;-85
2022/10/04 05:06:36;;;;;;;12.03;6.53;;;11.00;99.90;;;;;;6306014;22;20416;-85
2022/10/04 05:09:26;;;;;;;15.07;6.40;;;11.00;99.90;;;;;;6306297;22;20358;-85
2022/10/04 05:12:51;;;;;;;11.80;6.93;;;11.00;99.90;;;;;;6278334;22;20398;-86
2022/10/04 05:19:25;;;;;;;;;;;;;;;;;;;;;
2022/10/04 05:26:01;;;;;;;;;;;;;;;;;;;;;
2022/10/04 05:46:44;;;;;;;;;;;;;;;;;;;;;
2022/10/04 05:49:22;;;;;;;14.13;7.00;;;10.80;99.90;;;;;;6279205;22;20387;-87
2022/10/04 05:52:00;;;;;;;10.13;6.70;;;10.80;99.90;;;;;;6273299;22;20399;-87
2022/10/04 05:54:30;;;;;;;15.37;6.57;;;10.90;99.90;;;;;;6275177;22;20355;-86
2022/10/04 05:57:22;;;;;;;12.53;6.47;;;10.90;99.90;;;;;;6272911;22;20379;-87
2022/10/04 06:00:14;;;;;;;9.37;6.30;;;11.00;99.90;;;;;;6274595;22;20355;-86
2022/10/04 06:03:01;;;;;;;9.57;7.00;;;11.10;43.00;;;;;;6274773;22;20398;-87
2022/10/04 06:05:52;;;;;;;10.57;6.10;;;11.10;1.00;;;;;;6273431;22;20390;-86
2022/10/04 06:08:40;;;;;;;11.00;6.70;;;11.10;1.00;;;;;;6272723;22;20410;-86
2022/10/04 06:11:15;;;;;;;10.30;6.87;;;11.20;1.00;;;;;;6274485;22;20409;-87
2022/10/04 06:14:09;;;;;;;15.20;7.53;;;11.30;1.00;;;;;;6274799;22;20366;-87
2022/10/04 06:17:06;;;;;;;9.20;6.20;;;11.40;1.00;;;;;;6274897;22;20440;-86
2022/10/04 11:31:34;;;;;;;;;;;;;;;;;;;;;
2022/10/04 11:48:42;;;;;;;;;;;;;;;;;;;;;
2022/10/04 12:22:52;;;;;;;;;;;;;;;;;;;;;
2022/10/04 12:25:41;;;;;;;;;;;;;;;;;;;;;
2022/10/04 12:32:13;;;;;;;;;;;;;;;;;;;;;
2022/10/04 12:48:47;;;;;;;;;;;;;;;;;;;;;
2022/10/04 12:55:27;;;;;;;5.40;2.70;;;35.90;20.30;;;;;;6136666;23;20373;-85
2022/10/04 12:58:24;;;;;;;3.60;2.47;;;35.70;20.80;;;;;;6155599;23;20388;-86
2022/10/04 13:01:06;;;;;;;3.90;2.43;;;35.60;20.60;;;;;;6214693;23;20451;-86
2022/10/04 13:04:04;;;;;;;10.90;2.10;;;35.60;20.80;;;;;;6188495;23;20453;-84
2022/10/04 13:06:58;;;;;;;3.87;2.03;;;35.80;21.00;;;;;;6214369;23;20415;-86
2022/10/04 13:09:56;;;;;;;6.63;2.70;;;35.90;21.00;;;;;;6213001;23;20483;-86
2022/10/04 13:12:56;;;;;;;2.77;2.00;;;35.70;20.00;;;;;;6214828;23;20527;-86
2022/10/04 13:15:43;;;;;;;6.60;2.33;;;35.60;20.00;;;;;;6214402;23;20403;-86
2022/10/04 13:18:39;;;;;;;7.73;2.70;;;35.50;19.70;;;;;;6214716;23;20434;-85
2022/10/04 13:21:22;;;;;;;3.97;2.27;;;35.30;19.20;;;;;;6213672;23;20460;-86
2022/10/04 13:24:15;;;;;;;4.30;2.50;;;35.10;19.30;;;;;;6188121;23;20462;-86
2022/10/04 13:27:02;;;;;;;3.37;2.80;;;35.10;18.90;;;;;;6185730;23;20892;-86
2022/10/04 13:33:15;;;;;;;;;;;;;;;;;;;;;
2022/10/04 13:35:53;;;;;;;4.47;2.03;;;34.00;18.80;;;;;;6213871;23;20424;-84
2022/10/04 13:39:12;;;;;;;;;;;;;;;;;;;;;
2022/10/04 13:42:26;;;;;;;4.03;2.13;;;34.30;20.20;;;;;;6204575;23;20452;-85
2022/10/04 13:45:23;;;;;;;11.17;3.20;;;33.80;19.40;;;;;;6091702;23;20388;-85
2022/10/04 13:47:56;;;;;;;2.83;2.43;;;33.00;17.90;;;;;;6095212;23;20427;-85
2022/10/04 13:50:39;;;;;;;5.17;2.37;;;32.50;18.40;;;;;;6186790;23;20391;-85
2022/10/04 13:56:39;;;;;;;4.53;2.13;;;32.80;20.20;;;;;;6213488;23;20387;-85
2022/10/04 13:59:34;;;;;;;6.60;2.47;;;33.00;21.10;;;;;;6210637;23;20920;-86
2022/10/04 14:02:21;;;;;;;;;;;;;;;;;;;;;
2022/10/04 14:05:06;;;;;;;;;;;;;;;;;;;;;
2022/10/04 14:07:59;;;;;;;3.30;2.23;;;32.50;22.00;;;;;;6213997;23;20915;-85
2022/10/04 14:10:46;;;;;;;3.27;2.50;;;32.50;22.60;;;;;;6185475;23;20431;-85
2022/10/04 14:13:35;;;;;;;2.63;2.00;;;32.50;22.50;;;;;;6186656;23;20408;-85
2022/10/04 14:16:36;;;;;;;4.07;2.30;;;32.40;22.80;;;;;;6214219;23;20349;-85
2022/10/04 14:19:10;;;;;;;4.97;2.30;;;32.30;22.90;;;;;;6213602;23;20696;-85
2022/10/04 14:22:00;;;;;;;3.30;2.17;;;32.00;22.50;;;;;;6187471;23;20439;-85
2022/10/04 14:24:35;;;;;;;6.17;2.40;;;32.00;22.50;;;;;;6213413;23;20369;-85
2022/10/04 14:27:30;;;;;;;4.67;2.30;;;31.80;22.70;;;;;;6213355;23;20372;-85
2022/10/04 14:30:26;;;;;;;;;;;;;;;;;;;;;
2022/10/04 14:33:35;;;;;;;;;;;;;;;;;;;;;
2022/10/04 14:36:38;;;;;;;3.07;2.30;;;31.30;23.10;;;;;;6212595;23;20455;-85
2022/10/04 14:39:50;;;;;;;;;;;;;;;;;;;;;
2022/10/04 14:42:51;;;;;;;4.90;2.20;;;30.80;23.80;;;;;;6215857;23;21008;-85
2022/10/04 14:45:23;;;;;;;4.93;2.53;;;30.50;23.40;;;;;;6094643;23;20460;-84
2022/10/04 14:48:13;;;;;;;4.77;2.40;;;30.20;24.10;;;;;;6205787;23;20423;-85
2022/10/04 14:51:14;;;;;;;3.97;2.30;;;30.10;24.00;;;;;;6189346;23;20451;-84
2022/10/04 14:53:50;;;;;;;3.77;2.43;;;29.70;24.00;;;;;;6113424;23;20713;-85
2022/10/04 14:56:57;;;;;;;7.00;2.60;;;29.40;24.40;;;;;;6216420;23;20355;-85
2022/10/04 14:59:41;;;;;;;2.87;2.20;;;29.30;24.80;;;;;;6214048;23;20384;-85
2022/10/04 15:02:10;;;;;;;2.60;2.30;;;29.10;25.60;;;;;;6215459;23;20439;-84
2022/10/04 15:04:50;;;;;;;3.10;2.80;;;28.90;25.90;;;;;;6216056;23;20369;-84
2022/10/04 15:07:29;;;;;;;4.77;3.33;;;28.70;26.90;;;;;;6215470;23;20360;-84
2022/10/04 15:10:17;;;;;;;7.20;2.33;;;28.50;26.30;;;;;;6215685;23;20357;-84
2022/10/04 15:13:08;;;;;;;;;;;;;;;;;;;;;
2022/10/04 15:16:12;;;;;;;8.00;2.97;;;27.80;26.50;;;;;;6216931;23;20427;-84
2022/10/04 15:18:37;;;;;;;6.63;2.90;;;27.50;26.90;;;;;;6185950;23;20387;-85
2022/10/04 15:21:22;;;;;;;3.27;2.70;;;27.30;27.40;;;;;;6217331;23;20420;-84
2022/10/04 15:23:57;;;;;;;4.07;2.87;;;27.10;28.50;;;;;;6217702;23;20161;-84
2022/10/04 15:26:22;;;;;;;3.53;2.60;;;26.90;28.20;;;;;;6217743;23;20352;-83
2022/10/04 15:28:48;;;;;;;6.33;3.10;;;26.70;28.50;;;;;;6216507;23;20864;-85
2022/10/04 15:31:28;;;;;;;4.70;2.63;;;26.50;29.00;;;;;;6217758;23;20197;-84
2022/10/04 15:34:16;;;;;;;3.97;2.80;;;26.30;29.70;;;;;;6217803;23;20614;-84
2022/10/04 15:37:21;;;;;;;7.17;2.97;;;26.20;30.60;;;;;;6218107;23;20435;-83
2022/10/04 15:40:05;;;;;;;3.60;2.80;;;26.00;30.80;;;;;;6217945;23;20468;-83
2022/10/04 15:42:52;;;;;;;5.10;2.90;;;25.90;32.90;;;;;;6191239;23;20407;-84
2022/10/04 15:45:44;;;;;;;6.40;3.10;;;25.80;33.90;;;;;;6218575;23;20385;-83
2022/10/04 15:48:19;;;;;;;5.43;2.90;;;25.70;34.40;;;;;;6216031;23;20373;-84
2022/10/04 15:51:05;;;;;;;4.07;2.67;;;25.70;35.80;;;;;;6216728;23;20724;-84
2022/10/04 15:54:04;;;;;;;4.07;2.67;;;25.60;36.40;;;;;;6216845;23;20357;-83
2022/10/04 15:56:44;;;;;;;4.30;2.83;;;25.60;37.20;;;;;;6217725;23;20363;-83
2022/10/04 16:00:02;;;;;;;7.43;2.83;;;25.50;38.70;;;;;;6187700;23;20384;-85
2022/10/04 16:02:43;;;;;;;5.27;3.20;;;25.50;39.40;;;;;;6092681;23;20534;-83
2022/10/04 16:05:18;;;;;;;5.03;2.70;;;25.40;40.80;;;;;;6209397;23;20929;-84
2022/10/04 16:08:08;;;;;;;4.97;3.00;;;25.30;41.40;;;;;;6215500;23;20390;-84
2022/10/04 16:11:22;;;;;;;4.47;3.00;;;25.10;41.60;;;;;;6215550;23;20407;-84
2022/10/04 16:13:53;;;;;;;4.10;3.17;;;25.00;55.10;;;;;;6196730;23;20386;-84
2022/10/04 16:16:27;;;;;;;6.00;3.20;;;24.80;42.30;;;;;;6215598;23;20421;-84
2022/10/04 16:22:26;;;;;;;4.97;3.37;;;24.50;43.70;;;;;;6215077;23;20459;-86
2022/10/04 16:24:58;;;;;;;8.03;4.20;;;24.40;45.00;;;;;;6214804;23;20364;-84
2022/10/04 16:27:56;;;;;;;8.67;6.33;;;24.30;45.70;;;;;;6188653;23;20382;-85
2022/10/04 16:30:38;;;;;;;14.00;9.53;;;24.20;46.80;;;;;;6215347;23;20365;-84
2022/10/04 16:33:21;;;;;;;10.00;6.50;;;24.00;47.30;;;;;;6189355;23;20415;-84
2022/10/04 16:36:01;;;;;;;21.23;11.80;;;23.70;48.20;;;;;;6216202;23;20411;-86
2022/10/04 16:38:42;;;;;;;20.63;10.80;;;23.60;49.60;;;;;;6214584;23;20370;-85
2022/10/04 16:41:35;;;;;;;11.83;6.20;;;23.40;51.40;;;;;;6213060;23;20485;-84
2022/10/04 16:44:02;;;;;;;13.43;6.90;;;23.20;53.20;;;;;;6214384;23;20361;-87
2022/10/04 16:46:44;;;;;;;10.80;5.33;;;23.10;54.40;;;;;;6215550;23;20384;-86
2022/10/04 16:49:48;;;;;;;10.67;5.47;;;23.00;55.80;;;;;;6188163;23;20476;-86
2022/10/04 16:52:29;;;;;;;11.63;5.30;;;22.80;57.20;;;;;;6215019;23;20401;-87
2022/10/04 16:55:22;;;;;;;9.43;5.70;;;22.70;58.80;;;;;;6215102;23;20364;-86
2022/10/04 16:58:26;;;;;;;9.77;6.03;;;22.60;62.70;;;;;;6214982;23;20422;-87
2022/10/04 17:01:22;;;;;;;11.53;5.00;;;22.40;64.60;;;;;;6094126;23;20834;-87
2022/10/04 17:04:23;;;;;;;9.20;4.23;;;22.20;65.90;;;;;;6071577;23;20382;-85
2022/10/04 17:07:28;;;;;;;9.60;4.90;;;22.00;70.40;;;;;;6157005;23;20735;-84
2022/10/04 17:10:28;;;;;;;9.23;6.27;;;21.90;74.30;;;;;;6217605;23;20879;-86
2022/10/04 17:13:22;;;;;;;8.70;6.00;;;21.80;79.50;;;;;;6215153;23;20783;-87
2022/10/04 17:16:29;;;;;;;9.47;5.87;;;21.70;83.40;;;;;;6198783;23;20421;-86
2022/10/04 17:19:33;;;;;;;8.90;4.77;;;21.60;87.40;;;;;;6214434;23;20448;-86
2022/10/04 17:22:14;;;;;;;7.50;4.03;;;21.50;90.60;;;;;;6187353;23;20440;-86
2022/10/04 17:24:50;;;;;;;6.67;4.10;;;21.40;91.40;;;;;;6187343;23;20372;-86
2022/10/04 17:27:39;;;;;;;6.00;3.70;;;21.30;92.80;;;;;;6214474;23;20360;-86
2022/10/04 17:30:17;;;;;;;10.40;4.90;;;21.20;95.50;;;;;;6213880;23;20373;-86
2022/10/04 17:36:27;;;;;;;6.00;5.27;;;21.00;98.00;;;;;;6201311;23;20419;-87
2022/10/04 17:39:14;;;;;;;8.97;6.00;;;20.90;99.60;;;;;;6232453;23;20357;-87
2022/10/04 17:41:42;;;;;;;5.30;4.13;;;20.80;99.90;;;;;;6225567;23;20483;-86
2022/10/04 17:44:48;;;;;;;11.13;5.47;;;20.70;99.90;;;;;;6196031;23;20411;-86
2022/10/04 17:47:21;;;;;;;13.17;5.70;;;20.50;99.90;;;;;;6222111;23;20351;-86
2022/10/04 18:03:12;;;;;;;11.43;5.57;;;19.90;99.90;;;;;;6155260;23;20414;-84
2022/10/04 18:05:40;;;;;;;7.20;5.73;;;19.90;99.90;;;;;;6193036;23;20395;-82
2022/10/04 18:08:37;;;;;;;6.40;5.70;;;19.80;99.90;;;;;;6192461;23;20867;-86
2022/10/04 18:11:12;;;;;;;8.60;6.13;;;19.80;99.90;;;;;;6202897;23;20392;-84
2022/10/04 18:13:46;;;;;;;11.33;6.20;;;19.70;99.90;;;;;;6219787;23;20357;-83
2022/10/04 18:16:33;;;;;;;9.57;6.13;;;19.60;99.90;;;;;;6218979;23;20666;-83
2022/10/04 18:19:34;;;;;;;10.13;5.53;;;19.60;99.90;;;;;;6219142;23;20693;-85
2022/10/04 18:22:25;;;;;;;13.00;6.27;;;19.50;99.90;;;;;;6220264;23;20508;-83
2022/10/04 18:25:25;;;;;;;7.47;5.90;;;19.50;99.90;;;;;;6193721;23;20373;-84
2022/10/04 18:28:10;;;;;;;7.70;5.73;;;19.40;99.90;;;;;;6193309;23;20754;-84
2022/10/04 18:30:47;;;;;;;8.70;6.83;;;19.40;99.90;;;;;;6193973;23;20470;-84
2022/10/04 18:33:15;;;;;;;12.00;6.57;;;19.30;99.90;;;;;;6192851;23;21000;-84
2022/10/04 18:36:18;;;;;;;14.53;6.30;;;19.20;99.90;;;;;;6219373;23;20384;-84
2022/10/04 18:39:04;;;;;;;6.70;5.80;;;19.10;99.90;;;;;;6219457;23;20864;-87
2022/10/04 18:42:09;;;;;;;;;;;;;;;;;;;;;
2022/10/04 18:44:58;;;;;;;6.10;5.47;;;18.90;99.90;;;;;;6193490;23;20438;-84
2022/10/04 18:47:50;;;;;;;12.70;6.10;;;18.70;99.90;;;;;;6215706;23;20363;-85
2022/10/04 18:50:42;;;;;;;9.20;5.20;;;18.60;99.90;;;;;;6216314;23;20693;-84
2022/10/04 18:53:27;;;;;;;8.20;5.80;;;18.50;99.90;;;;;;6199248;23;20504;-84
2022/10/04 18:56:00;;;;;;;8.23;5.50;;;18.40;99.90;;;;;;6214307;23;20364;-85
2022/10/04 19:04:58;;;;;;;5.97;4.37;;;18.40;99.90;;;;;;6221724;23;20361;-85
2022/10/04 19:07:55;;;;;;;7.77;4.90;;;18.40;99.90;;;;;;6222262;23;20356;-83
2022/10/04 19:10:32;;;;;;;11.30;5.43;;;18.40;99.90;;;;;;6213077;23;20409;-83
2022/10/04 19:13:30;;;;;;;6.47;5.00;;;18.40;99.90;;;;;;6190063;23;20737;-83
2022/10/04 19:16:34;;;;;;;6.83;5.00;;;18.40;99.90;;;;;;6188047;23;20973;-84
2022/10/04 19:19:22;;;;;;;7.20;5.47;;;18.40;99.90;;;;;;6217173;23;20362;-84
2022/10/04 19:22:22;;;;;;;5.60;5.03;;;18.40;99.90;;;;;;6216100;23;20471;-85
2022/10/04 19:25:06;;;;;;;8.60;5.70;;;18.30;99.90;;;;;;6199181;23;20761;-84
2022/10/04 19:27:44;;;;;;;8.00;5.33;;;18.30;99.90;;;;;;6221584;23;20374;-84
2022/10/04 19:30:31;;;;;;;8.13;4.63;;;18.30;99.90;;;;;;6220879;23;20388;-84
2022/10/04 19:33:28;;;;;;;8.20;4.90;;;18.30;99.90;;;;;;6219932;23;20955;-83
2022/10/04 19:36:23;;;;;;;8.00;4.87;;;18.30;99.90;;;;;;6194007;23;20395;-84
2022/10/04 19:39:36;;;;;;;8.30;5.37;;;18.20;99.90;;;;;;6219979;23;20442;-84
2022/10/04 19:42:26;;;;;;;9.37;5.20;;;18.20;99.90;;;;;;6135477;23;20430;-83
2022/10/04 19:45:23;;;;;;;8.13;5.77;;;18.10;99.90;;;;;;6193214;23;20769;-84
2022/10/04 19:48:16;;;;;;;9.57;6.60;;;18.10;99.90;;;;;;6219867;23;20363;-84
2022/10/04 19:50:48;;;;;;;8.70;6.87;;;18.00;99.90;;;;;;6220673;23;20366;-84
2022/10/04 19:53:49;;;;;;;11.73;7.70;;;18.00;99.90;;;;;;6193128;23;20480;-84
2022/10/04 19:56:23;;;;;;;10.50;6.87;;;17.90;99.90;;;;;;6194618;23;20383;-84
2022/10/04 19:59:01;;;;;;;13.87;8.30;;;17.90;99.90;;;;;;6225093;23;20370;-83
2022/10/04 20:01:28;;;;;;;9.50;6.60;;;17.80;99.90;;;;;;6224638;23;20436;-84
2022/10/04 20:06:54;;;;;;;9.63;7.10;;;17.60;99.90;;;;;;6229514;23;20360;-86
2022/10/04 20:09:43;;;;;;;10.50;6.50;;;17.50;99.90;;;;;;6225240;23;20371;-83
2022/10/04 20:12:39;;;;;;;9.97;7.10;;;17.40;99.90;;;;;;6223726;23;20388;-86
2022/10/04 20:15:19;;;;;;;11.50;6.87;;;17.40;99.90;;;;;;6225736;23;20366;-83
2022/10/04 20:17:57;;;;;;;;;;;;;;;;;;;;;
2022/10/04 20:20:55;;;;;;;9.17;6.20;;;17.20;99.90;;;;;;6226105;23;20373;-83
2022/10/04 20:23:36;;;;;;;7.80;6.43;;;17.20;99.90;;;;;;6225259;23;20385;-83
2022/10/04 20:26:51;;;;;;;9.80;6.37;;;17.10;99.90;;;;;;6225360;23;20379;-84
2022/10/04 20:29:42;;;;;;;8.23;5.90;;;17.00;99.90;;;;;;6227008;23;20384;-83
2022/10/04 20:32:35;;;;;;;8.70;6.50;;;16.90;99.90;;;;;;6187447;23;20406;-83
2022/10/04 20:35:10;;;;;;;8.63;6.47;;;16.90;99.90;;;;;;6202566;23;20388;-83
2022/10/04 20:37:52;;;;;;;9.30;6.50;;;16.80;99.90;;;;;;6201598;23;20834;-83
2022/10/04 20:40:24;;;;;;;8.40;6.60;;;16.60;1.00;;;;;;6227448;23;20376;-83
2022/10/04 20:43:30;;;;;;;8.97;7.10;;;16.60;1.00;;;;;;6226832;23;20776;-85
2022/10/04 20:46:00;;;;;;;8.17;6.63;;;16.50;1.00;;;;;;6228248;23;20360;-84
2022/10/04 20:48:30;;;;;;;10.83;6.23;;;16.40;1.00;;;;;;6228370;23;20360;-83
2022/10/04 20:51:08;;;;;;;7.87;7.10;;;16.40;1.00;;;;;;6228256;23;20360;-83
2022/10/04 20:53:46;;;;;;;12.47;8.03;;;16.30;1.00;;;;;;6202166;23;20447;-83
2022/10/04 20:56:28;;;;;;;12.67;8.20;;;16.20;1.00;;;;;;6204080;23;20382;-85
2022/10/04 20:59:02;;;;;;;11.17;8.50;;;16.20;1.00;;;;;;6231458;23;20365;-85
2022/10/04 21:07:25;;;;;;;13.07;8.00;;;15.90;1.00;;;;;;6213975;23;20382;-82
2022/10/04 21:09:54;;;;;;;10.50;8.50;;;15.90;1.00;;;;;;6238824;23;20433;-82
2022/10/04 21:12:35;;;;;;;11.80;7.93;;;15.90;29.20;;;;;;6213940;23;20404;-83
2022/10/04 21:15:04;;;;;;;9.70;7.70;;;15.80;99.90;;;;;;6199897;23;20882;-83
2022/10/04 21:17:30;;;;;;;11.97;9.10;;;15.80;99.90;;;;;;6223230;23;20387;-83
2022/10/04 21:19:55;;;;;;;15.13;7.60;;;15.80;99.90;;;;;;6223283;23;20396;-83
2022/10/04 21:22:29;;;;;;;8.47;6.40;;;15.70;99.90;;;;;;6221926;23;20193;-83
2022/10/04 21:24:59;;;;;;;10.70;7.20;;;15.70;99.90;;;;;;6198996;23;20168;-82
2022/10/04 21:27:30;;;;;;;9.03;7.47;;;15.60;99.90;;;;;;6225178;23;20388;-82
2022/10/04 21:29:58;;;;;;;8.23;6.67;;;15.60;99.90;;;;;;6225074;23;20380;-82
2022/10/04 21:32:24;;;;;;;7.77;6.97;;;15.60;99.90;;;;;;6222935;23;20422;-83
2022/10/04 21:34:51;;;;;;;9.53;6.67;;;15.50;99.90;;;;;;6224230;23;20380;-84
2022/10/04 21:37:17;;;;;;;12.10;6.90;;;15.50;99.90;;;;;;6197419;23;20728;-83
2022/10/04 21:39:43;;;;;;;10.27;7.33;;;15.50;1.00;;;;;;6224340;23;20388;-83
2022/10/04 21:42:09;;;;;;;8.07;6.20;;;15.40;1.00;;;;;;6224127;23;20921;-83
2022/10/04 21:44:38;;;;;;;11.00;7.30;;;15.30;1.00;;;;;;6223240;23;20876;-84
2022/10/04 21:47:06;;;;;;;6.73;5.90;;;15.20;1.00;;;;;;6194885;23;20402;-85
2022/10/04 21:49:31;;;;;;;8.27;6.57;;;15.20;1.00;;;;;;6220660;23;20489;-83
2022/10/04 21:51:57;;;;;;;8.83;6.63;;;15.10;1.00;;;;;;6224348;23;20395;-84
2022/10/04 21:54:25;;;;;;;6.70;6.00;;;15.10;54.80;;;;;;6221354;23;20157;-83
2022/10/04 21:56:52;;;;;;;8.40;6.23;;;15.00;99.90;;;;;;6221044;23;20160;-84
2022/10/04 21:59:20;;;;;;;6.10;5.50;;;15.00;99.90;;;;;;6193798;23;20714;-84
2022/10/04 22:01:46;;;;;;;6.37;5.73;;;15.00;99.90;;;;;;6194714;23;20927;-83
2022/10/04 22:04:14;;;;;;;8.03;5.80;;;14.90;99.90;;;;;;6193699;23;20387;-84
2022/10/04 22:06:40;;;;;;;7.33;6.23;;;14.90;99.90;;;;;;6221810;23;20151;-83
2022/10/04 22:09:06;;;;;;;11.80;5.67;;;14.90;99.90;;;;;;6221162;23;20401;-82
2022/10/04 22:11:34;;;;;;;9.33;6.10;;;14.90;99.90;;;;;;6222569;23;20426;-83
2022/10/04 22:14:02;;;;;;;6.30;5.70;;;14.80;1.00;;;;;;6222367;23;20400;-83
2022/10/04 22:16:30;;;;;;;7.73;5.93;;;14.80;1.00;;;;;;6196344;23;20392;-82
2022/10/04 22:19:13;;;;;;;7.30;5.97;;;14.70;1.00;;;;;;6198137;23;20416;-81
2022/10/04 22:21:39;;;;;;;12.23;6.50;;;14.70;1.00;;;;;;6225844;23;20433;-83
2022/10/04 22:24:14;;;;;;;7.70;5.60;;;14.70;1.00;;;;;;6257673;23;20398;-83
2022/10/04 22:26:40;;;;;;;7.40;6.40;;;14.70;1.00;;;;;;6258374;23;20499;-83
2022/10/04 22:29:12;;;;;;;7.93;6.30;;;14.60;1.00;;;;;;6255064;23;20377;-82
2022/10/04 22:31:38;;;;;;;10.70;5.97;;;14.60;1.00;;;;;;6255380;22;20205;-82